Terminal Aerodrome Forecast
Issued by NWS Nashville, TN

Current Version | Previous Version | Text Only | Print | Product List | Glossary Off
Versions: 1 2 3 4 5 6 7 8 9 10 11 12 13 14 15 16 17 18 19

130
FTUS44 KOHX 270520
TAFCSV
TAF
KCSV 270520Z 2706/2806 17010G20KT P6SM BKN120 OVC250
     FM270900 VRB06KT 4SM -SHRA BKN050 OVC100
      TEMPO 2709/2711 1 1/2SM -TSRA BR BKN025 OVC050CB
     FM271200 18006KT 6SM -SHRA SCT007 OVC025
     FM271600 25010G20KT P6SM SCT011 OVC025
     FM271900 26008KT P6SM SCT250=

USA.gov is the U.S. government's official web portal to all federal, state and local government web resources and services.